createdAt,value
2018-07-17T00:00:11.051Z,1014.7
2018-07-17T00:00:36.603Z,1014.67
2018-07-17T00:01:02.195Z,1014.69
2018-07-17T00:01:27.768Z,1014.64
2018-07-17T00:01:53.360Z,1014.71
2018-07-17T00:02:18.959Z,1014.7
2018-07-17T00:02:44.553Z,1014.7
2018-07-17T00:03:10.105Z,1014.68
2018-07-17T00:03:35.667Z,1014.64
2018-07-17T00:04:01.272Z,1014.66
2018-07-17T00:04:26.857Z,1014.67
2018-07-17T00:04:52.431Z,1014.64
2018-07-17T00:05:18.008Z,1014.62
2018-07-17T00:05:43.602Z,1014.67
2018-07-17T00:06:09.182Z,1014.66
2018-07-17T00:06:34.759Z,1014.62
2018-07-17T00:07:00.339Z,1014.64
2018-07-17T00:07:25.932Z,1014.63
2018-07-17T00:07:51.494Z,1014.66
2018-07-17T00:08:17.084Z,1014.62
2018-07-17T00:08:42.654Z,1014.6
2018-07-17T00:09:08.232Z,1014.63
2018-07-17T00:09:33.797Z,1014.61
2018-07-17T00:09:59.382Z,1014.67
2018-07-17T00:10:24.955Z,1014.64
2018-07-17T00:10:50.526Z,1014.6
2018-07-17T00:11:16.093Z,1014.64
2018-07-17T00:11:41.679Z,1014.63
2018-07-17T00:12:07.232Z,1014.61
2018-07-17T00:12:32.813Z,1014.63
2018-07-17T00:12:58.385Z,1014.62
2018-07-17T00:13:23.963Z,1014.6
2018-07-17T00:13:49.544Z,1014.55
2018-07-17T00:14:15.112Z,1014.58
2018-07-17T00:14:40.675Z,1014.61
2018-07-17T00:15:06.248Z,1014.55
2018-07-17T00:15:31.840Z,1014.53
2018-07-17T00:15:57.414Z,1014.57
2018-07-17T00:16:22.987Z,1014.57
2018-07-17T00:16:48.576Z,1014.58
2018-07-17T00:17:14.151Z,1014.55
2018-07-17T00:17:39.716Z,1014.57
2018-07-17T00:18:05.274Z,1014.53
2018-07-17T00:18:30.850Z,1014.51
2018-07-17T00:18:56.454Z,1014.59
2018-07-17T00:19:22.049Z,1014.52
2018-07-17T00:19:47.632Z,1014.58
2018-07-17T00:20:13.183Z,1014.56
2018-07-17T00:20:38.743Z,1014.54
2018-07-17T00:21:04.308Z,1014.54
2018-07-17T00:21:29.883Z,1014.54
2018-07-17T00:21:55.457Z,1014.56
2018-07-17T00:22:21.048Z,1014.55
2018-07-17T00:22:46.642Z,1014.54
2018-07-17T00:23:12.247Z,1014.56
2018-07-17T00:23:37.855Z,1014.56
2018-07-17T00:24:03.469Z,1014.54
2018-07-17T00:24:29.049Z,1014.56
2018-07-17T00:24:54.636Z,1014.54
2018-07-17T00:25:20.192Z,1014.61
2018-07-17T00:25:45.788Z,1014.56
2018-07-17T00:26:11.363Z,1014.54
2018-07-17T00:26:36.939Z,1014.56
2018-07-17T00:27:02.535Z,1014.6
2018-07-17T00:27:28.094Z,1014.56
2018-07-17T00:27:53.670Z,1014.56
2018-07-17T00:28:19.236Z,1014.54
2018-07-17T00:28:44.791Z,1014.56
2018-07-17T00:29:10.365Z,1014.54
2018-07-17T00:29:35.940Z,1014.55
2018-07-17T00:30:01.513Z,1014.55
2018-07-17T00:30:27.070Z,1014.55
2018-07-17T00:30:52.660Z,1014.54
2018-07-17T00:31:18.243Z,1014.51
2018-07-17T00:31:43.806Z,1014.54
2018-07-17T00:32:09.379Z,1014.5
2018-07-17T00:32:34.958Z,1014.55
2018-07-17T00:33:00.568Z,1014.5
2018-07-17T00:33:26.159Z,1014.55
2018-07-17T00:33:51.735Z,1014.47
2018-07-17T00:34:17.304Z,1014.54
2018-07-17T00:34:42.881Z,1014.5
2018-07-17T00:35:08.456Z,1014.53
2018-07-17T00:35:34.045Z,1014.49
2018-07-17T00:35:59.647Z,1014.54
2018-07-17T00:36:25.226Z,1014.5
2018-07-17T00:36:50.790Z,1014.47
2018-07-17T00:37:16.355Z,1014.47
2018-07-17T00:37:41.930Z,1014.5
2018-07-17T00:38:07.493Z,1014.48
2018-07-17T00:38:33.057Z,1014.54
2018-07-17T00:38:58.625Z,1014.48
2018-07-17T00:39:24.197Z,1014.47
2018-07-17T00:39:49.764Z,1014.49
2018-07-17T00:40:15.341Z,1014.48
2018-07-17T00:40:40.935Z,1014.44
2018-07-17T00:41:06.470Z,1014.48
2018-07-17T00:41:32.054Z,1014.46
2018-07-17T00:41:57.634Z,1014.46
2018-07-17T00:42:23.232Z,1014.49
2018-07-17T00:42:48.810Z,1014.5
2018-07-17T00:43:14.369Z,1014.5
2018-07-17T00:43:39.957Z,1014.48
2018-07-17T00:44:05.521Z,1014.48
2018-07-17T00:44:31.106Z,1014.47
2018-07-17T00:44:56.660Z,1014.49
2018-07-17T00:45:22.263Z,1014.46
2018-07-17T00:45:47.854Z,1014.46
2018-07-17T00:46:13.434Z,1014.46
2018-07-17T00:46:39.024Z,1014.49
2018-07-17T00:47:04.600Z,1014.5
2018-07-17T00:47:30.170Z,1014.48
2018-07-17T00:47:55.765Z,1014.46
2018-07-17T00:48:21.365Z,1014.47
2018-07-17T00:48:46.932Z,1014.51
2018-07-17T00:49:12.508Z,1014.45
2018-07-17T00:49:38.071Z,1014.48
2018-07-17T00:50:03.642Z,1014.45
2018-07-17T00:50:29.238Z,1014.45
2018-07-17T00:50:54.817Z,1014.41
2018-07-17T00:51:20.419Z,1014.43
2018-07-17T00:51:45.990Z,1014.43
2018-07-17T00:52:11.557Z,1014.43
2018-07-17T00:52:37.134Z,1014.41
2018-07-17T00:53:02.724Z,1014.39
2018-07-17T00:53:28.289Z,1014.39
2018-07-17T00:53:53.867Z,1014.41
2018-07-17T00:54:19.452Z,1014.4
2018-07-17T00:54:45.053Z,1014.4
2018-07-17T00:55:10.637Z,1014.42
2018-07-17T00:55:36.218Z,1014.44
2018-07-17T00:56:01.808Z,1014.41
2018-07-17T00:56:27.367Z,1014.46
2018-07-17T00:56:52.946Z,1014.41
2018-07-17T00:57:18.509Z,1014.44
2018-07-17T00:57:44.085Z,1014.43
2018-07-17T00:58:09.648Z,1014.41
2018-07-17T00:58:35.225Z,1014.43
2018-07-17T00:59:00.767Z,1014.43
2018-07-17T00:59:26.347Z,1014.39
2018-07-17T00:59:51.922Z,1014.41
2018-07-17T01:00:17.473Z,1014.42
2018-07-17T01:00:43.040Z,1014.39
2018-07-17T01:01:08.632Z,1014.42
2018-07-17T01:01:34.204Z,1014.4
2018-07-17T01:01:59.771Z,1014.39
2018-07-17T01:02:25.339Z,1014.34
2018-07-17T01:02:50.940Z,1014.38
2018-07-17T01:03:16.516Z,1014.36
2018-07-17T01:03:42.088Z,1014.36
2018-07-17T01:04:07.642Z,1014.38
2018-07-17T01:04:33.218Z,1014.37
2018-07-17T01:04:58.800Z,1014.4
2018-07-17T01:05:24.382Z,1014.35
2018-07-17T01:05:49.953Z,1014.34
2018-07-17T01:06:15.521Z,1014.36
2018-07-17T01:06:41.099Z,1014.4
2018-07-17T01:07:06.733Z,1014.42
2018-07-17T01:07:32.235Z,1014.37
2018-07-17T01:07:57.822Z,1014.39
2018-07-17T01:08:23.405Z,1014.37
2018-07-17T01:08:48.977Z,1014.37
2018-07-17T01:09:14.556Z,1014.42
2018-07-17T01:09:40.123Z,1014.38
2018-07-17T01:10:05.717Z,1014.39
2018-07-17T01:10:31.304Z,1014.39
2018-07-17T01:10:56.882Z,1014.41
2018-07-17T01:11:22.443Z,1014.4
2018-07-17T01:11:48.033Z,1014.4
2018-07-17T01:12:13.580Z,1014.38
2018-07-17T01:12:39.138Z,1014.39
2018-07-17T01:13:04.709Z,1014.4
2018-07-17T01:13:30.305Z,1014.42
2018-07-17T01:13:55.880Z,1014.38
2018-07-17T01:14:21.444Z,1014.36
2018-07-17T01:14:47.036Z,1014.37
2018-07-17T01:15:12.610Z,1014.37
2018-07-17T01:15:38.196Z,1014.38
2018-07-17T01:16:03.752Z,1014.33
2018-07-17T01:16:29.338Z,1014.38
2018-07-17T01:16:54.908Z,1014.34
2018-07-17T01:17:20.496Z,1014.37
2018-07-17T01:17:46.059Z,1014.38
2018-07-17T01:18:11.624Z,1014.38
2018-07-17T01:18:37.194Z,1014.39
2018-07-17T01:19:02.801Z,1014.42
2018-07-17T01:19:28.351Z,1014.38
2018-07-17T01:19:53.927Z,1014.41
2018-07-17T01:20:19.482Z,1014.4
2018-07-17T01:20:45.049Z,1014.43
2018-07-17T01:21:10.627Z,1014.41
2018-07-17T01:21:36.189Z,1014.42
2018-07-17T01:22:01.759Z,1014.41
2018-07-17T01:22:27.337Z,1014.41
2018-07-17T01:22:52.921Z,1014.42
2018-07-17T01:23:18.493Z,1014.38
2018-07-17T01:23:44.051Z,1014.4
2018-07-17T01:24:09.617Z,1014.42
2018-07-17T01:24:35.187Z,1014.41
2018-07-17T01:25:00.764Z,1014.37
2018-07-17T01:25:26.336Z,1014.38
2018-07-17T01:25:51.896Z,1014.4
2018-07-17T01:26:17.474Z,1014.41
2018-07-17T01:26:43.033Z,1014.37
2018-07-17T01:27:08.613Z,1014.38
2018-07-17T01:27:34.168Z,1014.4
2018-07-17T01:27:59.730Z,1014.39
2018-07-17T01:28:25.296Z,1014.4
2018-07-17T01:28:50.865Z,1014.44
2018-07-17T01:29:16.425Z,1014.38
2018-07-17T01:29:41.993Z,1014.41
2018-07-17T01:30:07.588Z,1014.46
2018-07-17T01:30:33.144Z,1014.41
2018-07-17T01:30:58.720Z,1014.45
2018-07-17T01:31:24.305Z,1014.4
2018-07-17T01:31:49.892Z,1014.4
2018-07-17T01:32:15.455Z,1014.44
2018-07-17T01:32:41.037Z,1014.42
2018-07-17T01:33:06.606Z,1014.4
2018-07-17T01:33:32.186Z,1014.39
2018-07-17T01:33:57.766Z,1014.4
2018-07-17T01:34:23.348Z,1014.4
2018-07-17T01:34:48.921Z,1014.43
2018-07-17T01:35:14.486Z,1014.4
2018-07-17T01:35:40.057Z,1014.39
2018-07-17T01:36:05.627Z,1014.41
2018-07-17T01:36:31.188Z,1014.39
2018-07-17T01:36:56.779Z,1014.4
2018-07-17T01:37:22.370Z,1014.4
2018-07-17T01:37:47.930Z,1014.41
2018-07-17T01:38:13.494Z,1014.38
2018-07-17T01:38:39.067Z,1014.37
2018-07-17T01:39:04.625Z,1014.33
2018-07-17T01:39:30.207Z,1014.37
2018-07-17T01:39:55.784Z,1014.39
2018-07-17T01:40:21.346Z,1014.34
2018-07-17T01:40:46.919Z,1014.33
2018-07-17T01:41:12.521Z,1014.34
2018-07-17T01:41:38.100Z,1014.38
2018-07-17T01:42:03.706Z,1014.33
2018-07-17T01:42:29.222Z,1014.33
2018-07-17T01:42:54.804Z,1014.4
2018-07-17T01:43:20.372Z,1014.39
2018-07-17T01:43:45.946Z,1014.35
2018-07-17T01:44:11.520Z,1014.34
2018-07-17T01:44:37.106Z,1014.36
2018-07-17T01:45:02.661Z,1014.33
2018-07-17T01:45:28.221Z,1014.36
2018-07-17T01:45:53.807Z,1014.32
2018-07-17T01:46:19.376Z,1014.33
2018-07-17T01:46:44.980Z,1014.29
2018-07-17T01:47:10.548Z,1014.34
2018-07-17T01:47:36.121Z,1014.37
2018-07-17T01:48:01.676Z,1014.36
2018-07-17T01:48:27.243Z,1014.36
2018-07-17T01:48:52.820Z,1014.32
2018-07-17T01:49:18.392Z,1014.32
2018-07-17T01:49:43.974Z,1014.33
2018-07-17T01:50:09.534Z,1014.3
2018-07-17T01:50:35.114Z,1014.33
2018-07-17T01:51:00.675Z,1014.32
2018-07-17T01:51:26.279Z,1014.34
2018-07-17T01:51:51.851Z,1014.3
2018-07-17T01:52:17.413Z,1014.3
2018-07-17T01:52:42.992Z,1014.3
2018-07-17T01:53:08.576Z,1014.3
2018-07-17T01:53:34.159Z,1014.3
2018-07-17T01:53:59.730Z,1014.36
2018-07-17T01:54:25.292Z,1014.31
2018-07-17T01:54:50.867Z,1014.33
2018-07-17T01:55:16.466Z,1014.33
2018-07-17T01:55:42.068Z,1014.34
2018-07-17T01:56:07.643Z,1014.37
2018-07-17T01:56:33.212Z,1014.32
2018-07-17T01:56:58.768Z,1014.3
2018-07-17T01:57:24.338Z,1014.35
2018-07-17T01:57:49.900Z,1014.34
2018-07-17T01:58:15.476Z,1014.34
2018-07-17T01:58:41.036Z,1014.37
2018-07-17T01:59:06.604Z,1014.35
2018-07-17T01:59:32.186Z,1014.3
2018-07-17T01:59:57.749Z,1014.34
2018-07-17T02:00:23.303Z,1014.32
2018-07-17T02:00:48.886Z,1014.31
2018-07-17T02:01:14.450Z,1014.28
2018-07-17T02:01:40.036Z,1014.32
2018-07-17T02:02:05.604Z,1014.33
2018-07-17T02:02:31.178Z,1014.32
2018-07-17T02:02:56.754Z,1014.33
2018-07-17T02:03:22.316Z,1014.35
2018-07-17T02:03:47.888Z,1014.29
2018-07-17T02:04:13.462Z,1014.29
2018-07-17T02:04:39.061Z,1014.33
2018-07-17T02:05:04.632Z,1014.33
2018-07-17T02:05:30.192Z,1014.28
2018-07-17T02:05:55.768Z,1014.32
2018-07-17T02:06:21.338Z,1014.32
2018-07-17T02:06:46.908Z,1014.3
2018-07-17T02:07:12.499Z,1014.29
2018-07-17T02:07:38.066Z,1014.29
2018-07-17T02:08:03.634Z,1014.3
2018-07-17T02:08:29.200Z,1014.28
2018-07-17T02:08:54.776Z,1014.26
2018-07-17T02:09:20.352Z,1014.26
2018-07-17T02:09:45.940Z,1014.27
2018-07-17T02:10:11.513Z,1014.25
2018-07-17T02:10:37.071Z,1014.25
2018-07-17T02:11:02.654Z,1014.26
2018-07-17T02:11:28.216Z,1014.22
2018-07-17T02:11:53.789Z,1014.24
2018-07-17T02:12:19.362Z,1014.24
2018-07-17T02:12:44.955Z,1014.22
2018-07-17T02:13:10.530Z,1014.23
2018-07-17T02:13:36.096Z,1014.23
2018-07-17T02:14:01.673Z,1014.2
2018-07-17T02:14:27.256Z,1014.2
2018-07-17T02:14:52.834Z,1014.18
2018-07-17T02:15:18.413Z,1014.19
2018-07-17T02:15:43.977Z,1014.21
2018-07-17T02:16:09.580Z,1014.19
2018-07-17T02:16:35.156Z,1014.15
2018-07-17T02:17:00.714Z,1014.18
2018-07-17T02:17:26.272Z,1014.13
2018-07-17T02:17:51.854Z,1014.17
2018-07-17T02:18:17.399Z,1014.19
2018-07-17T02:18:43.046Z,1014.17
2018-07-17T02:19:08.550Z,1014.14
2018-07-17T02:19:34.121Z,1014.17
2018-07-17T02:19:59.692Z,1014.13
2018-07-17T02:20:25.268Z,1014.11
2018-07-17T02:20:50.848Z,1014.13
2018-07-17T02:21:16.429Z,1014.08
2018-07-17T02:21:42.001Z,1014.12
2018-07-17T02:22:07.584Z,1014.11
2018-07-17T02:22:33.151Z,1014.16
2018-07-17T02:22:58.733Z,1014.14
2018-07-17T02:23:24.295Z,1014.14
2018-07-17T02:23:49.866Z,1014.11
2018-07-17T02:24:15.462Z,1014.11
2018-07-17T02:24:41.037Z,1014.1
2018-07-17T02:25:06.615Z,1014.11
2018-07-17T02:25:32.181Z,1014.13
2018-07-17T02:25:57.760Z,1014.12
2018-07-17T02:26:23.344Z,1014.11
2018-07-17T02:26:48.935Z,1014.1
2018-07-17T02:27:14.518Z,1014.06
2018-07-17T02:27:40.074Z,1014.09
2018-07-17T02:28:05.645Z,1014.11
2018-07-17T02:28:31.214Z,1014.11
2018-07-17T02:28:56.764Z,1014.1
2018-07-17T02:29:22.359Z,1014.09
2018-07-17T02:29:47.934Z,1014.09
2018-07-17T02:30:13.524Z,1014.09
2018-07-17T02:30:39.101Z,1014.09
2018-07-17T02:31:04.670Z,1014.08
2018-07-17T02:31:30.256Z,1014.08
2018-07-17T02:31:55.846Z,1014.1
2018-07-17T02:32:21.435Z,1014.11
2018-07-17T02:32:47.012Z,1014.09
2018-07-17T02:33:12.572Z,1014.12
2018-07-17T02:33:38.160Z,1014.11
2018-07-17T02:34:03.750Z,1014.11
2018-07-17T02:34:29.334Z,1014.11
2018-07-17T02:34:54.893Z,1014.12
2018-07-17T02:35:20.469Z,1014.14
2018-07-17T02:35:46.038Z,1014.15
2018-07-17T02:36:11.622Z,1014.16
2018-07-17T02:36:37.191Z,1014.13
2018-07-17T02:37:02.758Z,1014.16
2018-07-17T02:37:28.340Z,1014.16
2018-07-17T02:37:53.957Z,1014.15
2018-07-17T02:38:19.553Z,1014.14
2018-07-17T02:38:45.152Z,1014.16
2018-07-17T02:39:10.739Z,1014.16
2018-07-17T02:39:36.304Z,1014.18
2018-07-17T02:40:01.855Z,1014.18
2018-07-17T02:40:27.436Z,1014.16
2018-07-17T02:40:53.006Z,1014.12
2018-07-17T02:41:18.582Z,1014.15
2018-07-17T02:41:44.150Z,1014.19
2018-07-17T02:42:09.762Z,1014.17
2018-07-17T02:42:35.306Z,1014.15
2018-07-17T02:43:00.847Z,1014.15
2018-07-17T02:43:26.427Z,1014.19
2018-07-17T02:43:51.986Z,1014.14
2018-07-17T02:44:17.553Z,1014.15
2018-07-17T02:44:43.143Z,1014.13
2018-07-17T02:45:08.718Z,1014.13
2018-07-17T02:45:34.328Z,1014.1
2018-07-17T02:45:59.873Z,1014.13
2018-07-17T02:46:25.448Z,1014.15
2018-07-17T02:46:51.021Z,1014.11
2018-07-17T02:47:16.589Z,1014.12
2018-07-17T02:47:42.146Z,1014.15
2018-07-17T02:48:07.710Z,1014.14
2018-07-17T02:48:33.282Z,1014.14
2018-07-17T02:48:58.844Z,1014.1
2018-07-17T02:49:24.405Z,1014.1
2018-07-17T02:49:49.978Z,1014.08
2018-07-17T02:50:15.536Z,1014.07
2018-07-17T02:50:41.113Z,1014.11
2018-07-17T02:51:06.678Z,1014.12
2018-07-17T02:51:32.252Z,1014.09
2018-07-17T02:51:57.840Z,1014.08
2018-07-17T02:52:23.408Z,1014.1
2018-07-17T02:52:49.026Z,1014.1
2018-07-17T02:53:14.611Z,1014.05
2018-07-17T02:53:40.203Z,1014.08
2018-07-17T02:54:05.780Z,1014.09
2018-07-17T02:54:31.346Z,1014.1
2018-07-17T02:54:56.924Z,1014.13
2018-07-17T02:55:22.496Z,1014.13
2018-07-17T02:55:48.056Z,1014.12
2018-07-17T02:56:13.638Z,1014.09
2018-07-17T02:56:39.218Z,1014.09
2018-07-17T02:57:04.770Z,1014.08
2018-07-17T02:57:30.322Z,1014.08
2018-07-17T02:57:55.882Z,1014.07
2018-07-17T02:58:21.436Z,1014.08
2018-07-17T02:58:47.029Z,1014.04
2018-07-17T02:59:12.626Z,1014.09
2018-07-17T02:59:38.206Z,1014.06
2018-07-17T03:00:03.782Z,1014.03
2018-07-17T03:00:29.331Z,1014.07
2018-07-17T03:00:54.910Z,1014.03
2018-07-17T03:01:20.477Z,1014.05
2018-07-17T03:01:46.092Z,1014.08
2018-07-17T03:02:11.657Z,1014.1
2018-07-17T03:02:37.228Z,1014.05
2018-07-17T03:03:02.807Z,1014.03
2018-07-17T03:03:28.405Z,1014.04
2018-07-17T03:03:54.015Z,1014.08
2018-07-17T03:04:19.608Z,1014.05
2018-07-17T03:04:45.179Z,1014.06
2018-07-17T03:05:10.750Z,1014.04
2018-07-17T03:05:36.310Z,1014.04
2018-07-17T03:06:01.908Z,1014.06
2018-07-17T03:06:27.456Z,1014.09
2018-07-17T03:06:53.086Z,1014.05
2018-07-17T03:07:18.600Z,1014.05
2018-07-17T03:07:44.156Z,1014.06
2018-07-17T03:08:09.723Z,1014.13
2018-07-17T03:08:35.308Z,1014.1
2018-07-17T03:09:00.875Z,1014.08
2018-07-17T03:09:26.426Z,1014.1
2018-07-17T03:09:51.996Z,1014.1
2018-07-17T03:10:17.553Z,1014.11
2018-07-17T03:10:43.125Z,1014.08
2018-07-17T03:11:08.688Z,1014.1
2018-07-17T03:11:34.238Z,1014.16
2018-07-17T03:11:59.796Z,1014.13
2018-07-17T03:12:25.343Z,1014.13
2018-07-17T03:12:50.919Z,1014.17
2018-07-17T03:13:16.493Z,1014.17
2018-07-17T03:13:42.042Z,1014.16
2018-07-17T03:14:07.618Z,1014.18
2018-07-17T03:14:33.195Z,1014.17
2018-07-17T03:14:58.785Z,1014.2
2018-07-17T03:15:24.343Z,1014.19
2018-07-17T03:15:49.926Z,1014.21
2018-07-17T03:16:15.494Z,1014.21
2018-07-17T03:16:41.054Z,1014.21
2018-07-17T03:17:06.612Z,1014.21
2018-07-17T03:17:32.201Z,1014.22
2018-07-17T03:17:57.764Z,1014.2
2018-07-17T03:18:23.330Z,1014.26
2018-07-17T03:18:48.891Z,1014.21
2018-07-17T03:19:14.450Z,1014.25
2018-07-17T03:19:40.011Z,1014.24
2018-07-17T03:20:05.596Z,1014.27
2018-07-17T03:20:31.195Z,1014.27
2018-07-17T03:20:56.760Z,1014.24
2018-07-17T03:21:22.315Z,1014.3
2018-07-17T03:21:47.894Z,1014.28
2018-07-17T03:22:13.485Z,1014.3
2018-07-17T03:22:39.087Z,1014.28
2018-07-17T03:23:04.634Z,1014.29
2018-07-17T03:23:30.209Z,1014.28
2018-07-17T03:23:55.791Z,1014.28
2018-07-17T03:24:21.356Z,1014.26
2018-07-17T03:24:46.920Z,1014.32
2018-07-17T03:25:12.492Z,1014.31
2018-07-17T03:25:38.076Z,1014.31
2018-07-17T03:26:03.645Z,1014.3
2018-07-17T03:26:29.203Z,1014.33
2018-07-17T03:26:54.768Z,1014.3
2018-07-17T03:27:20.322Z,1014.3
2018-07-17T03:27:45.903Z,1014.32
2018-07-17T03:28:11.521Z,1014.33
2018-07-17T03:28:37.085Z,1014.3
2018-07-17T03:29:02.678Z,1014.29
2018-07-17T03:29:28.256Z,1014.33
2018-07-17T03:29:53.832Z,1014.32
2018-07-17T03:30:19.406Z,1014.33
2018-07-17T03:30:45.010Z,1014.29
2018-07-17T03:31:10.588Z,1014.31
2018-07-17T03:31:36.173Z,1014.3
2018-07-17T03:32:01.734Z,1014.3
2018-07-17T03:32:27.312Z,1014.32
2018-07-17T03:32:52.872Z,1014.33
2018-07-17T03:33:18.434Z,1014.35
2018-07-17T03:33:43.996Z,1014.29
2018-07-17T03:34:09.576Z,1014.32
2018-07-17T03:34:35.160Z,1014.36
2018-07-17T03:35:00.716Z,1014.35
2018-07-17T03:35:26.292Z,1014.33
2018-07-17T03:35:51.863Z,1014.33
2018-07-17T03:36:17.471Z,1014.35
2018-07-17T03:36:42.996Z,1014.36
2018-07-17T03:37:08.569Z,1014.36
2018-07-17T03:37:34.130Z,1014.37
2018-07-17T03:37:59.692Z,1014.37
2018-07-17T03:38:25.296Z,1014.33
2018-07-17T03:38:50.866Z,1014.34
2018-07-17T03:39:16.431Z,1014.36
2018-07-17T03:39:41.998Z,1014.33
2018-07-17T03:40:07.595Z,1014.38
2018-07-17T03:40:33.172Z,1014.36
2018-07-17T03:40:58.731Z,1014.36
2018-07-17T03:41:24.355Z,1014.4
2018-07-17T03:41:49.908Z,1014.35
2018-07-17T03:42:15.479Z,1014.36
2018-07-17T03:42:41.077Z,1014.37
2018-07-17T03:43:06.642Z,1014.33
2018-07-17T03:43:32.200Z,1014.33
2018-07-17T03:43:57.811Z,1014.38
2018-07-17T03:44:23.377Z,1014.35
2018-07-17T03:44:48.963Z,1014.33
2018-07-17T03:45:14.536Z,1014.33
2018-07-17T03:45:40.088Z,1014.37
2018-07-17T03:46:05.665Z,1014.41
2018-07-17T03:46:31.235Z,1014.37
2018-07-17T03:46:56.809Z,1014.38
2018-07-17T03:47:22.386Z,1014.41
2018-07-17T03:47:47.970Z,1014.39
2018-07-17T03:48:13.562Z,1014.42
2018-07-17T03:48:39.151Z,1014.37
2018-07-17T03:49:04.708Z,1014.42
2018-07-17T03:49:30.283Z,1014.41
2018-07-17T03:49:55.861Z,1014.42
2018-07-17T03:50:21.448Z,1014.44
2018-07-17T03:50:47.000Z,1014.42
2018-07-17T03:51:12.566Z,1014.44
2018-07-17T03:51:38.158Z,1014.42
2018-07-17T03:52:03.739Z,1014.41
2018-07-17T03:52:29.280Z,1014.45
2018-07-17T03:52:54.862Z,1014.44
2018-07-17T03:53:20.455Z,1014.43
2018-07-17T03:53:46.047Z,1014.4
2018-07-17T03:54:11.636Z,1014.39
2018-07-17T03:54:37.214Z,1014.38
2018-07-17T03:55:02.779Z,1014.44
2018-07-17T03:55:28.353Z,1014.4
2018-07-17T03:55:53.934Z,1014.44
2018-07-17T03:56:19.480Z,1014.41
2018-07-17T03:56:45.064Z,1014.38
2018-07-17T03:57:10.655Z,1014.45
2018-07-17T03:57:36.229Z,1014.45
2018-07-17T03:58:01.791Z,1014.45
2018-07-17T03:58:27.389Z,1014.48
2018-07-17T03:58:52.954Z,1014.43
2018-07-17T03:59:18.543Z,1014.4
2018-07-17T03:59:44.100Z,1014.4
2018-07-17T04:00:09.679Z,1014.37
2018-07-17T04:00:35.255Z,1014.39
2018-07-17T04:01:00.854Z,1014.39
2018-07-17T04:01:26.464Z,1014.38
2018-07-17T04:01:52.023Z,1014.43
2018-07-17T04:02:17.629Z,1014.38
2018-07-17T04:02:43.231Z,1014.43
2018-07-17T04:03:08.751Z,1014.36
2018-07-17T04:03:34.363Z,1014.34
2018-07-17T04:03:59.978Z,1014.38
2018-07-17T04:04:25.630Z,1014.34
2018-07-17T04:04:51.095Z,1014.38
2018-07-17T04:05:16.652Z,1014.36
2018-07-17T04:05:42.253Z,1014.35
2018-07-17T04:06:07.824Z,1014.37
2018-07-17T04:06:33.371Z,1014.35
2018-07-17T04:06:58.944Z,1014.38
2018-07-17T04:07:24.537Z,1014.4
2018-07-17T04:07:50.091Z,1014.39
2018-07-17T04:08:15.651Z,1014.4
2018-07-17T04:08:41.275Z,1014.43
2018-07-17T04:09:06.794Z,1014.42
2018-07-17T04:09:32.355Z,1014.48
2018-07-17T04:09:57.954Z,1014.46
2018-07-17T04:10:23.532Z,1014.49
2018-07-17T04:10:49.083Z,1014.49
2018-07-17T04:11:14.665Z,1014.52
2018-07-17T04:11:40.220Z,1014.5
2018-07-17T04:12:05.777Z,1014.5
2018-07-17T04:12:31.350Z,1014.49
2018-07-17T04:12:56.937Z,1014.52
2018-07-17T04:13:22.568Z,1014.48
2018-07-17T04:13:48.059Z,1014.49
2018-07-17T04:14:13.642Z,1014.49
2018-07-17T04:14:39.213Z,1014.49
2018-07-17T04:15:04.789Z,1014.48
2018-07-17T04:15:30.368Z,1014.48
2018-07-17T04:15:55.933Z,1014.46
2018-07-17T04:16:21.525Z,1014.45
2018-07-17T04:16:47.168Z,1014.45
2018-07-17T04:17:12.736Z,1014.44
2018-07-17T04:17:38.324Z,1014.47
2018-07-17T04:18:03.902Z,1014.44
2018-07-17T04:18:29.462Z,1014.45
2018-07-17T04:18:55.038Z,1014.42
2018-07-17T04:19:20.635Z,1014.4
2018-07-17T04:19:46.248Z,1014.42
2018-07-17T04:20:11.834Z,1014.4
2018-07-17T04:20:37.414Z,1014.4
2018-07-17T04:21:02.970Z,1014.4
2018-07-17T04:21:28.542Z,1014.41
2018-07-17T04:21:54.134Z,1014.43
2018-07-17T04:22:19.718Z,1014.41
2018-07-17T04:22:45.256Z,1014.44
2018-07-17T04:23:10.837Z,1014.43
2018-07-17T04:23:36.433Z,1014.45
2018-07-17T04:24:01.996Z,1014.45
2018-07-17T04:24:27.666Z,1014.44
2018-07-17T04:24:53.232Z,1014.48
2018-07-17T04:25:18.799Z,1014.44
2018-07-17T04:25:44.364Z,1014.4
2018-07-17T04:26:09.959Z,1014.46
2018-07-17T04:26:35.544Z,1014.43
2018-07-17T04:27:01.132Z,1014.44
2018-07-17T04:27:26.711Z,1014.39
2018-07-17T04:27:52.261Z,1014.42
2018-07-17T04:28:17.846Z,1014.43
2018-07-17T04:28:43.469Z,1014.44
2018-07-17T04:29:09.052Z,1014.4
2018-07-17T04:29:34.639Z,1014.38
2018-07-17T04:30:00.244Z,1014.4
2018-07-17T04:30:25.843Z,1014.41
2018-07-17T04:30:51.436Z,1014.43
2018-07-17T04:31:17.023Z,1014.41
2018-07-17T04:31:42.602Z,1014.4
2018-07-17T04:32:08.165Z,1014.38
2018-07-17T04:32:33.730Z,1014.39
2018-07-17T04:32:59.308Z,1014.38
2018-07-17T04:33:24.859Z,1014.4
2018-07-17T04:33:50.454Z,1014.39
2018-07-17T04:34:16.014Z,1014.39
2018-07-17T04:34:41.645Z,1014.35
2018-07-17T04:35:07.214Z,1014.37
2018-07-17T04:35:32.762Z,1014.36
2018-07-17T04:35:58.347Z,1014.37
2018-07-17T04:36:23.914Z,1014.4
2018-07-17T04:36:49.466Z,1014.42
2018-07-17T04:37:15.056Z,1014.42
2018-07-17T04:37:40.668Z,1014.41
2018-07-17T04:38:06.239Z,1014.43
2018-07-17T04:38:31.992Z,1014.39
2018-07-17T04:38:57.427Z,1014.35
2018-07-17T04:39:22.992Z,1014.37
2018-07-17T04:39:48.565Z,1014.38
2018-07-17T04:40:14.156Z,1014.38
2018-07-17T04:40:39.750Z,1014.41
2018-07-17T04:41:05.336Z,1014.4
2018-07-17T04:41:30.910Z,1014.38
2018-07-17T04:41:56.472Z,1014.36
2018-07-17T04:42:22.053Z,1014.36
2018-07-17T04:42:47.639Z,1014.35
2018-07-17T04:43:13.228Z,1014.35
2018-07-17T04:43:38.810Z,1014.32
2018-07-17T04:44:04.432Z,1014.32
2018-07-17T04:44:29.934Z,1014.32
2018-07-17T04:44:55.512Z,1014.34
2018-07-17T04:45:21.128Z,1014.32
2018-07-17T04:45:46.721Z,1014.29
2018-07-17T04:46:12.328Z,1014.32
2018-07-17T04:46:37.904Z,1014.31
2018-07-17T04:47:03.451Z,1014.28
2018-07-17T04:47:29.053Z,1014.34
2018-07-17T04:47:54.637Z,1014.29
2018-07-17T04:48:20.206Z,1014.31
2018-07-17T04:48:45.820Z,1014.32
2018-07-17T04:49:11.353Z,1014.35
2018-07-17T04:49:36.932Z,1014.37
2018-07-17T04:50:02.532Z,1014.38
2018-07-17T04:50:28.112Z,1014.36
2018-07-17T04:50:53.684Z,1014.36
2018-07-17T04:51:19.246Z,1014.37
2018-07-17T04:51:44.828Z,1014.36
2018-07-17T04:52:10.420Z,1014.4
2018-07-17T04:52:36.003Z,1014.4
2018-07-17T04:53:01.551Z,1014.33
2018-07-17T04:53:27.176Z,1014.38
2018-07-17T04:53:52.797Z,1014.34
2018-07-17T04:54:18.332Z,1014.35
2018-07-17T04:54:43.930Z,1014.37
2018-07-17T04:55:09.508Z,1014.35
2018-07-17T04:55:35.092Z,1014.39
2018-07-17T04:56:00.657Z,1014.35
2018-07-17T04:56:26.215Z,1014.36
2018-07-17T04:56:51.794Z,1014.41
2018-07-17T04:57:17.372Z,1014.34
2018-07-17T04:57:42.947Z,1014.41
2018-07-17T04:58:08.530Z,1014.37
2018-07-17T04:58:34.253Z,1014.4
2018-07-17T04:58:59.714Z,1014.37
2018-07-17T04:59:25.269Z,1014.39
2018-07-17T04:59:50.851Z,1014.35
2018-07-17T05:00:16.424Z,1014.38
2018-07-17T05:00:42.005Z,1014.39
2018-07-17T05:01:07.563Z,1014.39
2018-07-17T05:01:33.169Z,1014.41
2018-07-17T05:01:58.792Z,1014.38
2018-07-17T05:02:24.278Z,1014.38
2018-07-17T05:02:49.903Z,1014.41
2018-07-17T05:03:15.425Z,1014.37
2018-07-17T05:03:41.004Z,1014.37
2018-07-17T05:04:06.559Z,1014.4
2018-07-17T05:04:32.113Z,1014.37
2018-07-17T05:04:57.720Z,1014.42
2018-07-17T05:05:23.314Z,1014.37
2018-07-17T05:05:48.884Z,1014.38
2018-07-17T05:06:14.440Z,1014.38
2018-07-17T05:06:40.045Z,1014.39
2018-07-17T05:07:05.610Z,1014.44
2018-07-17T05:07:31.212Z,1014.45
2018-07-17T05:07:56.812Z,1014.42
2018-07-17T05:08:22.390Z,1014.44
2018-07-17T05:08:47.947Z,1014.5
2018-07-17T05:09:13.543Z,1014.42
2018-07-17T05:09:39.101Z,1014.47
2018-07-17T05:10:04.710Z,1014.53
2018-07-17T05:10:30.297Z,1014.47